• Join FlightAware (Why Join?)
  • Login
  • US Flag 
09:31AM EST


 

Airport Tracker/Info


-or-


 

Live Flight TrackerFlight Track Log ✈ N173DS ✈ 03-Jan-2014 ✈ KVRB - KTPA

Flight Track Log - Related Links

Times and Time Zones

All times are in EST time to prevent confusion due to time zone crossing. See the N173DS flight status page for this flight to view local times or setup timezone preferences in your user account.

Time Position Orientation Groundspeed Altitude Reporting Facility
EST Latitude Longitude Course Direction KTS MPH feet Rate Location/Type
01:13PM 27.7011 -80.5086 301° West 282 325 3,700  Level Miami Center
01:14PM 27.7075 -80.5861 275° West 243 280 5,900 2,640 Climbing Miami Center
01:15PM 27.6950 -80.6703 260° West 256 295 9,000 2,580 Climbing Miami Center
01:16PM 27.7193 -80.8809 282° West  Level FlightAware Approximate
01:16PM 27.6822 -80.7519 260° West 286 329 11,100  Level Miami Center
01:17PM 27.7334 -80.9586 282° West  Level FlightAware Approximate
01:17PM 27.6625 -80.8661 259° West 323 372 14,000  Level Miami Center
01:18PM 27.6469 -80.9708 261° West 369 425 14,000  Level Miami Center
01:19PM 27.6269 -81.0875 259° West 389 448 14,000  Level Miami Center
01:20PM 27.6067 -81.2108 260° West 384 442 14,000  Level Miami Center
01:21PM 27.5889 -81.3131 259° West 360 414 14,000  Level Miami Center
01:22PM 27.5756 -81.4064 261° West 341 392 14,000  Level Miami Center
01:23PM 27.5578 -81.5017 258° West 328 377 14,000 -1,140 Level Miami Center
01:24PM 27.5419 -81.6017 260° West 328 377 11,800 -1,560 Descending Miami Center
01:25PM 27.5239 -81.7111 259° West 328 377 10,900 -480 Descending Miami Center
01:26PM 27.5031 -81.8272 259° West 349 402 10,900  Level Miami Center
01:27PM 27.4844 -81.9433 260° West 371 427 10,900  Level Miami Center
01:28PM 27.4681 -82.0547 261° West 376 433 10,900  Level Miami Center
01:29PM 27.4747 -82.1606 274° West 345 397 10,900  Level Miami Center
01:30PM 27.5386 -82.2383 313° West 315 362 11,000 -840 Climbing Miami Center
01:31PM 27.5936 -82.3253 306° West 328 377 9,300 -1,860 Descending Miami Center
01:32PM 27.6408 -82.3978 306° West 313 360 7,300 -2,040 Descending Miami Center
01:33PM 27.6975 -82.4497 321° Northwest 282 325 5,300 -1,980 Descending Miami Center
01:34PM 27.7631 -82.4786 339° North 260 299 3,400 -1,320 Descending Miami Center
01:35PM 27.8225 -82.5050 339° North 240 276 2,700 -600 Descending Miami Center
01:36PM 27.8781 -82.5267 341° North 226 260 2,300 -960 Descending Miami Center
01:37PM 27.9236 -82.5314 355° North 188 216 800 -1,500 Descending Miami Center
01:39PM 27.9667 -82.5167 North  Level FlightAware Approximate
01:46PM 27.9755 -82.5332 North  Level Estimated
01:47PM 27.9755 -82.5332 North  Level Estimated